Time;durP1;ratioP1;P1;durP2;ratioP2;P2;SDS_P1;SDS_P2;PMS_P1;PMS_P2;Temp;Humidity;BMP_temperature;BMP_pressure;BME280_temperature;BME280_humidity;BME280_pressure;Samples;Min_cycle;Max_cycle;Signal;HPM_P1;HPM_P2
2022/06/30 00:01:04;;;;;;;;;;;;;;;25.14;59.33;99205.88;5036204;28;19921;-67
2022/06/30 00:03:33;;;;;;;;;;;;;;;25.04;59.72;99192.59;5035751;28;19921;-67
2022/06/30 00:06:02;;;;;;;;;;;;;;;24.92;60.08;99197.81;5036062;28;20026;-67
2022/06/30 00:08:31;;;;;;;;;;;;;;;24.90;60.00;99200.53;5035732;28;20004;-67
2022/06/30 00:11:06;;;;;;;;;;;;;;;24.86;60.24;99193.81;5035932;28;20371;-67
2022/06/30 00:13:36;;;;;;;;;;;;;;;24.82;60.18;99184.53;5034733;28;19921;-67
2022/06/30 00:16:06;;;;;;;;;;;;;;;24.74;60.38;99194.59;5035613;28;19921;-67
2022/06/30 00:18:38;;;;;;;;;;;;;;;24.67;60.50;99190.72;5035596;28;19921;-67
2022/06/30 00:21:07;;;;;;;;;;;;;;;24.69;60.63;99191.44;5035778;28;19925;-67
2022/06/30 00:23:36;;;;;;;;;;;;;;;24.78;60.05;99195.28;5035433;28;20286;-67
2022/06/30 00:26:07;;;;;;;;;;;;;;;24.79;59.79;99197.78;5035225;28;19921;-66
2022/06/30 00:28:36;;;;;;;;;;;;;;;24.69;59.75;99191.44;5035527;28;19921;-66
2022/06/30 00:31:04;;;;;;;;;;;;;;;24.63;60.11;99197.09;5035284;28;19975;-66
2022/06/30 00:33:34;;;;;;;;;;;;;;;24.55;60.68;99184.53;5035580;28;19921;-66
2022/06/30 00:36:03;;;;;;;;;;;;;;;24.67;60.70;99189.91;5035215;28;19921;-67
2022/06/30 00:38:32;;;;;;;;;;;;;;;24.70;60.70;99187.06;5035170;28;19927;-66
2022/06/30 00:41:00;;;;;;;;;;;;;;;24.73;60.72;99181.66;5035040;28;19921;-67
2022/06/30 00:43:29;;;;;;;;;;;;;;;24.75;60.43;99170.19;5035077;28;19921;-67
2022/06/30 00:45:58;;;;;;;;;;;;;;;24.73;60.64;99174.69;5034842;28;19967;-67
2022/06/30 00:48:27;;;;;;;;;;;;;;;24.76;60.91;99182.31;5034954;28;19971;-67
2022/06/30 00:51:00;;;;;;;;;;;;;;;24.72;61.37;99178.22;5035252;28;19928;-67
2022/06/30 00:53:29;;;;;;;;;;;;;;;24.75;61.11;99169.34;5035028;28;19971;-67
2022/06/30 00:55:58;;;;;;;;;;;;;;;24.75;60.96;99159.75;5035103;28;19982;-67
2022/06/30 00:58:28;;;;;;;;;;;;;;;24.83;60.94;99159.25;5035013;28;19960;-67
2022/06/30 01:01:06;;;;;;;;;;;;;;;24.89;60.80;99151.84;5035094;28;20292;-67
2022/06/30 01:03:35;;;;;;;;;;;;;;;24.91;60.64;99155.19;5034724;28;19921;-67
2022/06/30 01:06:14;;;;;;;;;;;;;;;24.87;60.99;99158.94;5034519;28;19953;-67
2022/06/30 01:08:43;;;;;;;;;;;;;;;24.74;61.78;99155.44;5034942;28;19967;-67
2022/06/30 01:13:50;;;;;;;;;;;;;;;24.56;62.55;99160.13;5034520;28;19921;-69
2022/06/30 01:16:21;;;;;;;;;;;;;;;24.44;62.74;99165.31;5034399;28;19956;-67
2022/06/30 01:18:50;;;;;;;;;;;;;;;24.39;63.01;99172.59;5034816;28;19921;-67
2022/06/30 01:21:20;;;;;;;;;;;;;;;24.27;63.67;99168.19;5034382;28;19921;-67
2022/06/30 01:23:50;;;;;;;;;;;;;;;24.15;63.84;99158.53;5033887;28;20024;-67
2022/06/30 01:26:18;;;;;;;;;;;;;;;24.04;63.96;99167.03;5034392;28;19921;-67
2022/06/30 01:28:47;;;;;;;;;;;;;;;23.93;64.25;99161.66;5034240;28;19967;-67
2022/06/30 01:31:16;;;;;;;;;;;;;;;23.85;64.73;99166.53;5034251;28;19921;-67
2022/06/30 01:33:45;;;;;;;;;;;;;;;23.68;64.72;99164.94;5034187;28;20007;-67
2022/06/30 01:36:13;;;;;;;;;;;;;;;23.44;65.55;99166.50;5034794;28;19921;-67
2022/06/30 01:38:44;;;;;;;;;;;;;;;23.41;66.06;99165.81;5034384;28;20371;-67
2022/06/30 01:41:15;;;;;;;;;;;;;;;23.49;66.05;99169.63;5034130;28;20012;-67
2022/06/30 01:43:43;;;;;;;;;;;;;;;23.50;66.25;99175.69;5049889;28;19921;-68
2022/06/30 01:46:12;;;;;;;;;;;;;;;23.57;66.35;99172.59;5034272;28;19921;-67
2022/06/30 01:48:41;;;;;;;;;;;;;;;23.69;66.08;99171.84;5034250;28;19921;-67
2022/06/30 01:51:09;;;;;;;;;;;;;;;23.73;65.59;99172.50;5033935;28;20456;-67
2022/06/30 01:53:38;;;;;;;;;;;;;;;23.73;65.51;99165.50;5033922;28;19931;-67
2022/06/30 01:56:07;;;;;;;;;;;;;;;23.72;65.41;99163.84;5034204;28;19970;-67
2022/06/30 01:58:37;;;;;;;;;;;;;;;23.60;65.69;99164.59;5034279;28;19928;-67
2022/06/30 02:01:05;;;;;;;;;;;;;;;23.57;65.94;99158.72;5033942;28;19928;-67
2022/06/30 02:03:34;;;;;;;;;;;;;;;23.52;66.27;99164.22;5033841;28;19925;-67
2022/06/30 02:06:03;;;;;;;;;;;;;;;23.57;66.03;99156.97;5034172;28;19927;-67
2022/06/30 02:08:31;;;;;;;;;;;;;;;23.49;65.86;99161.00;5034061;28;19959;-67
2022/06/30 02:11:00;;;;;;;;;;;;;;;23.46;65.80;99158.56;5033762;28;20020;-67
2022/06/30 02:13:29;;;;;;;;;;;;;;;23.37;65.85;99154.75;5033546;28;19947;-67
2022/06/30 02:15:58;;;;;;;;;;;;;;;23.31;65.98;99163.75;5034484;28;19960;-67
2022/06/30 02:18:27;;;;;;;;;;;;;;;23.30;66.01;99169.88;5033723;28;19921;-67
2022/06/30 02:20:57;;;;;;;;;;;;;;;23.25;65.97;99171.13;5034065;28;19920;-67
2022/06/30 02:23:26;;;;;;;;;;;;;;;23.16;66.21;99177.69;5033697;28;20430;-66
2022/06/30 02:25:54;;;;;;;;;;;;;;;23.22;66.38;99179.09;5033721;28;20056;-67
2022/06/30 02:28:22;;;;;;;;;;;;;;;;;;5033480;28;19928;-67
2022/06/30 02:30:51;;;;;;;;;;;;;;;23.07;66.23;99185.22;5033620;28;20363;-67
2022/06/30 02:33:21;;;;;;;;;;;;;;;22.92;66.08;99188.72;5033564;28;19932;-67
2022/06/30 02:35:49;;;;;;;;;;;;;;;22.93;66.06;99186.03;5035327;28;20363;-67
2022/06/30 02:38:18;;;;;;;;;;;;;;;22.92;65.85;99188.72;5037322;28;19928;-67
2022/06/30 02:40:47;;;;;;;;;;;;;;;22.74;66.48;99206.25;5037445;28;19967;-67
2022/06/30 02:43:15;;;;;;;;;;;;;;;22.63;66.91;99213.81;5037568;28;19971;-67
2022/06/30 02:45:44;;;;;;;;;;;;;;;22.55;67.02;99224.66;5037304;28;19921;-66
2022/06/30 02:48:13;;;;;;;;;;;;;;;22.37;67.11;99217.88;5037238;28;19943;-66
2022/06/30 02:50:44;;;;;;;;;;;;;;;22.19;67.44;99218.91;5037447;28;19947;-66
2022/06/30 02:53:13;;;;;;;;;;;;;;;21.99;68.26;99216.56;5037180;28;19921;-67
2022/06/30 02:55:41;;;;;;;;;;;;;;;21.88;68.58;99209.34;5037405;28;19944;-66
2022/06/30 02:58:10;;;;;;;;;;;;;;;21.71;69.17;99205.97;5037045;28;19975;-67
2022/06/30 03:00:38;;;;;;;;;;;;;;;21.68;69.66;99216.50;5036951;28;19921;-67
2022/06/30 03:03:07;;;;;;;;;;;;;;;21.74;70.04;99216.19;5036984;28;19921;-66
2022/06/30 03:05:36;;;;;;;;;;;;;;;21.78;69.98;99217.69;5036936;28;19968;-66
2022/06/30 03:08:06;;;;;;;;;;;;;;;21.78;70.17;99222.91;5036888;28;19944;-66
2022/06/30 03:10:35;;;;;;;;;;;;;;;21.86;70.32;99233.72;5036822;28;20370;-66
2022/06/30 03:13:03;;;;;;;;;;;;;;;21.94;70.31;99235.00;5036768;28;19921;-67
2022/06/30 03:15:32;;;;;;;;;;;;;;;22.08;70.17;99239.44;5036783;28;20363;-67
2022/06/30 03:18:00;;;;;;;;;;;;;;;22.09;70.07;99237.69;5036656;28;20004;-67
2022/06/30 03:20:29;;;;;;;;;;;;;;;22.16;69.95;99239.88;5036849;28;20294;-67
2022/06/30 03:22:57;;;;;;;;;;;;;;;22.30;69.68;99250.34;5036601;28;19927;-67
2022/06/30 03:25:27;;;;;;;;;;;;;;;22.45;69.38;99246.91;5036575;28;20397;-67
2022/06/30 03:27:56;;;;;;;;;;;;;;;22.48;69.28;99249.31;5036764;28;20271;-67
2022/06/30 03:30:24;;;;;;;;;;;;;;;22.57;69.19;99253.19;5036410;28;19921;-67
2022/06/30 03:32:53;;;;;;;;;;;;;;;22.62;68.70;99254.66;5036416;28;19921;-67
2022/06/30 03:35:22;;;;;;;;;;;;;;;22.74;68.46;99247.06;5036678;28;20003;-67
2022/06/30 03:37:50;;;;;;;;;;;;;;;22.78;68.00;99249.38;5036316;28;19927;-67
2022/06/30 03:40:19;;;;;;;;;;;;;;;22.87;67.31;99250.63;5036230;28;19928;-67
2022/06/30 03:42:49;;;;;;;;;;;;;;;22.93;67.14;99247.66;5036600;28;19928;-67
2022/06/30 03:45:17;;;;;;;;;;;;;;;23.01;66.89;99245.47;5036505;28;20271;-67
2022/06/30 03:47:46;;;;;;;;;;;;;;;23.05;66.88;99246.97;5035251;28;19921;-67
2022/06/30 03:50:14;;;;;;;;;;;;;;;23.10;66.70;99242.31;5036082;28;19921;-67
2022/06/30 03:52:43;;;;;;;;;;;;;;;23.15;66.68;99248.09;5036027;28;19927;-67
2022/06/30 03:55:12;;;;;;;;;;;;;;;23.18;66.44;99247.91;5036015;28;19921;-67
2022/06/30 03:57:40;;;;;;;;;;;;;;;23.21;66.24;99252.94;5036253;28;19925;-67
2022/06/30 04:00:10;;;;;;;;;;;;;;;23.20;66.02;99251.28;5036008;28;20297;-67
2022/06/30 04:02:39;;;;;;;;;;;;;;;23.26;65.87;99243.09;5035909;28;20337;-67
2022/06/30 04:05:08;;;;;;;;;;;;;;;23.33;65.57;99242.63;5035890;28;19925;-67
2022/06/30 04:07:40;;;;;;;;;;;;;;;23.39;65.42;99243.25;5035762;28;20429;-67
2022/06/30 04:10:12;;;;;;;;;;;;;;;23.36;65.20;99246.88;5036226;28;19921;-67
2022/06/30 04:12:41;;;;;;;;;;;;;;;23.37;65.13;99245.91;5036007;28;19964;-67
2022/06/30 04:15:14;;;;;;;;;;;;;;;23.38;65.21;99245.00;5035477;28;19925;-67
2022/06/30 04:17:43;;;;;;;;;;;;;;;23.38;65.18;99238.94;5035938;28;20291;-68
2022/06/30 04:20:16;;;;;;;;;;;;;;;23.36;65.09;99241.66;5035541;28;20363;-68
2022/06/30 04:22:54;;;;;;;;;;;;;;;23.36;65.17;99246.88;5035530;28;20418;-67
2022/06/30 04:25:23;;;;;;;;;;;;;;;23.40;65.25;99248.34;5035847;28;19971;-68
2022/06/30 04:27:57;;;;;;;;;;;;;;;23.50;65.22;99249.47;5035238;28;19947;-67
2022/06/30 04:33:12;;;;;;;;;;;;;;;23.70;64.73;99256.94;5035307;28;20016;-67
2022/06/30 04:35:40;;;;;;;;;;;;;;;23.84;64.60;99264.75;5035309;28;20398;-67
2022/06/30 04:38:09;;;;;;;;;;;;;;;23.98;64.49;99256.06;5035784;28;20270;-67
2022/06/30 04:43:16;;;;;;;;;;;;;;;24.09;64.21;99251.03;5035087;28;19921;-67
2022/06/30 04:45:46;;;;;;;;;;;;;;;24.16;64.53;99238.47;5035383;28;19921;-67
2022/06/30 04:48:14;;;;;;;;;;;;;;;24.22;64.45;99243.28;5034958;28;19967;-68
2022/06/30 04:50:43;;;;;;;;;;;;;;;24.25;64.40;99237.88;5035138;28;20287;-68
2022/06/30 04:53:12;;;;;;;;;;;;;;;24.31;64.63;99238.31;5034896;28;19921;-67
2022/06/30 04:55:41;;;;;;;;;;;;;;;24.48;64.77;99238.06;5034821;28;19921;-68
2022/06/30 04:58:09;;;;;;;;;;;;;;;24.63;64.69;99231.03;5035504;28;19932;-68
2022/06/30 05:00:38;;;;;;;;;;;;;;;24.74;64.60;99230.34;5035066;28;19967;-68
2022/06/30 05:03:17;;;;;;;;;;;;;;;24.82;64.48;99233.28;5034693;28;20012;-68
2022/06/30 05:05:46;;;;;;;;;;;;;;;24.90;64.01;99237.09;5035088;28;19971;-67
2022/06/30 05:08:14;;;;;;;;;;;;;;;25.00;63.66;99222.47;5034520;28;19959;-67
2022/06/30 05:10:43;;;;;;;;;;;;;;;25.14;63.41;99230.22;5049966;28;20016;-67
2022/06/30 05:13:12;;;;;;;;;;;;;;;25.22;63.12;99233.13;5034414;28;19920;-68
2022/06/30 05:15:40;;;;;;;;;;;;;;;25.26;62.78;99226.78;5034547;28;19925;-68
2022/06/30 05:18:09;;;;;;;;;;;;;;;25.38;62.29;99232.94;5034489;28;19929;-68
2022/06/30 05:20:39;;;;;;;;;;;;;;;25.42;61.46;99233.56;5035061;28;20274;-68
2022/06/30 05:23:11;;;;;;;;;;;;;;;25.39;61.63;99234.59;5034692;28;20011;-67
2022/06/30 05:28:26;;;;;;;;;;;;;;;25.57;61.34;99227.31;5034290;28;19921;-68
2022/06/30 05:30:58;;;;;;;;;;;;;;;25.53;61.01;99231.09;5034286;28;19975;-67
2022/06/30 05:33:36;;;;;;;;;;;;;;;25.54;61.02;99232.75;5034274;28;19967;-68
2022/06/30 05:36:06;;;;;;;;;;;;;;;25.62;61.26;99235.69;5034220;28;19963;-68
2022/06/30 05:38:35;;;;;;;;;;;;;;;25.65;60.66;99227.63;5034219;28;19967;-68
2022/06/30 05:41:03;;;;;;;;;;;;;;;25.79;60.11;99227.50;5034066;28;19921;-68
2022/06/30 05:43:35;;;;;;;;;;;;;;;25.93;59.55;99232.59;5033997;28;19960;-68
2022/06/30 05:46:03;;;;;;;;;;;;;;;26.07;59.80;99237.69;5034010;28;20031;-68
2022/06/30 05:48:32;;;;;;;;;;;;;;;26.15;58.94;99230.16;5033911;28;19927;-68
2022/06/30 05:51:04;;;;;;;;;;;;;;;26.18;58.38;99229.91;5034350;28;19921;-68
2022/06/30 05:53:43;;;;;;;;;;;;;;;26.28;58.24;99228.31;5034330;28;20426;-68
2022/06/30 05:56:12;;;;;;;;;;;;;;;26.45;57.72;99233.19;5033957;28;19921;-67
2022/06/30 05:58:49;;;;;;;;;;;;;;;26.57;57.11;99229.66;5032740;28;20012;-67
2022/06/30 06:01:18;;;;;;;;;;;;;;;26.61;56.69;99233.72;5034333;28;19925;-67
2022/06/30 06:03:56;;;;;;;;;;;;;;;26.66;55.96;99233.38;5034163;28;20363;-67
2022/06/30 06:06:24;;;;;;;;;;;;;;;26.76;55.29;99236.19;5034228;28;19987;-67
2022/06/30 06:08:54;;;;;;;;;;;;;;;26.83;54.74;99240.03;5033671;28;20359;-68
2022/06/30 06:11:22;;;;;;;;;;;;;;;26.99;54.30;99240.56;5036587;28;20028;-67
2022/06/30 06:13:51;;;;;;;;;;;;;;;27.12;53.64;99233.44;5037652;28;19921;-67
2022/06/30 06:16:20;;;;;;;;;;;;;;;27.22;53.65;99234.41;5038181;28;19928;-66
2022/06/30 06:18:50;;;;;;;;;;;;;;;27.37;53.12;99230.63;5037766;28;20357;-68
2022/06/30 06:21:28;;;;;;;;;;;;;;;27.43;52.39;99232.81;5037849;28;19924;-66
2022/06/30 06:24:01;;;;;;;;;;;;;;;27.52;52.16;99226.03;5037737;28;19924;-68
2022/06/30 06:26:30;;;;;;;;;;;;;;;27.59;51.90;99232.47;5037643;28;19975;-67
2022/06/30 06:31:38;;;;;;;;;;;;;;;27.81;51.82;99228.03;5037571;28;19921;-69
2022/06/30 06:34:07;;;;;;;;;;;;;;;27.87;51.73;99222.31;5037469;28;20359;-67
2022/06/30 06:36:35;;;;;;;;;;;;;;;27.95;51.43;99234.00;5037465;28;20287;-66
2022/06/30 06:39:06;;;;;;;;;;;;;;;27.92;51.71;99228.03;5037723;28;20044;-66
2022/06/30 06:41:35;;;;;;;;;;;;;;;27.87;51.63;99230.19;5037443;28;19989;-68
2022/06/30 06:44:22;;;;;;;;;;;;;;;27.95;50.55;99234.84;5037569;28;20389;-68
2022/06/30 06:46:54;;;;;;;;;;;;;;;28.10;50.45;99233.63;5037270;28;19921;-67
2022/06/30 06:49:23;;;;;;;;;;;;;;;28.26;50.33;99228.00;5037071;28;19928;-68
2022/06/30 06:51:51;;;;;;;;;;;;;;;28.36;50.11;99234.19;5037400;28;19928;-67
2022/06/30 06:54:21;;;;;;;;;;;;;;;28.46;49.52;99229.84;5037396;28;19946;-68
2022/06/30 06:56:51;;;;;;;;;;;;;;;28.56;49.19;99220.25;5037066;28;19948;-67
2022/06/30 06:59:20;;;;;;;;;;;;;;;28.77;49.04;99217.69;5037397;28;20003;-67
2022/06/30 07:01:51;;;;;;;;;;;;;;;28.94;48.97;99219.75;5036975;28;19921;-67
2022/06/30 07:04:20;;;;;;;;;;;;;;;29.18;48.87;99215.94;5036941;28;19978;-67
2022/06/30 07:06:58;;;;;;;;;;;;;;;29.34;47.99;99220.72;5036881;28;19921;-68
2022/06/30 07:09:31;;;;;;;;;;;;;;;29.44;47.65;99224.22;5037349;28;20279;-69
2022/06/30 07:11:59;;;;;;;;;;;;;;;29.48;46.98;99219.53;5037164;28;19928;-68
2022/06/30 07:14:34;;;;;;;;;;;;;;;29.58;46.62;99217.78;5036582;28;19921;-67
2022/06/30 07:17:03;;;;;;;;;;;;;;;29.64;46.59;99220.72;5036805;28;19921;-67
2022/06/30 07:19:32;;;;;;;;;;;;;;;29.80;46.94;99215.00;5036501;28;20011;-67
2022/06/30 07:22:00;;;;;;;;;;;;;;;29.93;46.36;99220.00;5036751;28;19921;-67
2022/06/30 07:24:29;;;;;;;;;;;;;;;30.03;45.83;99216.44;5036836;28;19921;-67
2022/06/30 07:27:08;;;;;;;;;;;;;;;30.22;45.24;99216.47;5036508;28;20375;-67
2022/06/30 07:29:45;;;;;;;;;;;;;;;30.45;45.09;99202.09;5036503;28;19921;-67
2022/06/30 07:32:14;;;;;;;;;;;;;;;30.61;44.41;99200.72;5036452;28;19928;-67
2022/06/30 07:34:42;;;;;;;;;;;;;;;30.67;44.25;99205.44;5036337;28;19955;-67
2022/06/30 07:37:19;;;;;;;;;;;;;;;30.70;43.64;99206.00;5036297;28;19961;-66
2022/06/30 07:39:48;;;;;;;;;;;;;;;30.79;43.88;99206.94;5036321;28;19947;-67
2022/06/30 07:42:27;;;;;;;;;;;;;;;30.92;44.19;99199.63;5036593;28;19921;-67
2022/06/30 07:45:05;;;;;;;;;;;;;;;31.09;43.79;99196.25;5036512;28;19921;-68
2022/06/30 07:47:33;;;;;;;;;;;;;;;31.16;43.21;99197.34;5036469;28;19928;-68
2022/06/30 07:50:05;;;;;;;;;;;;;;;31.27;42.79;99210.38;5036352;28;20024;-67
2022/06/30 07:52:43;;;;;;;;;;;;;;;31.40;42.87;99205.63;5036081;28;19936;-67
2022/06/30 07:55:20;;;;;;;;;;;;;;;31.51;42.78;99200.19;5036444;28;20264;-67
2022/06/30 07:57:52;;;;;;;;;;;;;;;31.60;41.29;99209.84;5036326;28;19943;-67
2022/06/30 08:00:24;;;;;;;;;;;;;;;31.66;40.46;99206.66;5036520;28;20375;-68
2022/06/30 08:02:56;;;;;;;;;;;;;;;31.73;40.15;99202.44;5036262;28;19921;-67
2022/06/30 08:05:24;;;;;;;;;;;;;;;31.89;39.99;99200.97;5035887;28;19927;-69
2022/06/30 08:07:53;;;;;;;;;;;;;;;31.98;39.77;99210.69;5035692;28;19921;-69
2022/06/30 08:10:22;;;;;;;;;;;;;;;32.01;39.32;99200.63;5035610;28;20015;-68
2022/06/30 08:12:51;;;;;;;;;;;;;;;32.09;39.35;99203.38;5035540;28;19967;-69
2022/06/30 08:15:20;;;;;;;;;;;;;;;32.19;39.50;99198.03;5035550;28;20016;-69
2022/06/30 08:17:48;;;;;;;;;;;;;;;32.19;40.05;99190.09;5035664;28;19921;-69
2022/06/30 08:20:18;;;;;;;;;;;;;;;32.25;41.05;99200.09;5035487;28;19920;-70
2022/06/30 08:22:46;;;;;;;;;;;;;;;32.28;38.97;99191.84;5035466;28;19967;-69
2022/06/30 08:25:15;;;;;;;;;;;;;;;32.44;38.78;99192.03;5035537;28;20330;-69
2022/06/30 08:27:44;;;;;;;;;;;;;;;32.49;37.86;99187.09;5035722;28;20461;-69
2022/06/30 08:30:14;;;;;;;;;;;;;;;32.45;36.71;99191.03;5035203;28;19971;-69
2022/06/30 08:32:43;;;;;;;;;;;;;;;32.64;37.28;99193.53;5034987;28;20442;-70
2022/06/30 08:35:11;;;;;;;;;;;;;;;32.76;36.56;99191.47;5035331;28;20015;-69
2022/06/30 08:37:40;;;;;;;;;;;;;;;32.97;37.14;99189.34;5035213;28;19928;-70
2022/06/30 08:42:51;;;;;;;;;;;;;;;33.00;36.23;99189.00;5035137;28;19971;-70
2022/06/30 08:45:22;;;;;;;;;;;;;;;33.09;36.82;99186.28;5035232;28;19925;-70
2022/06/30 08:47:50;;;;;;;;;;;;;;;33.23;36.41;99189.38;5035055;28;19921;-70
2022/06/30 08:50:19;;;;;;;;;;;;;;;33.27;35.31;99182.75;5034860;28;19975;-70
2022/06/30 08:52:51;;;;;;;;;;;;;;;33.50;35.07;99175.91;5035231;28;20039;-70
2022/06/30 08:55:21;;;;;;;;;;;;;;;33.80;35.40;99172.78;5034942;28;19921;-70
2022/06/30 08:57:50;;;;;;;;;;;;;;;34.00;34.95;99174.13;5034793;28;19921;-69
2022/06/30 09:00:18;;;;;;;;;;;;;;;34.17;33.22;99175.06;5035437;28;19921;-71
2022/06/30 09:02:49;;;;;;;;;;;;;;;33.93;32.72;99173.13;5034671;28;19928;-70
2022/06/30 09:05:17;;;;;;;;;;;;;;;34.11;33.32;99159.78;5034719;28;19925;-70
2022/06/30 09:07:46;;;;;;;;;;;;;;;34.37;32.81;99160.50;5034608;28;20385;-70
2022/06/30 09:10:35;;;;;;;;;;;;;;;34.68;31.95;99169.47;5034926;28;19964;-69
2022/06/30 09:13:04;;;;;;;;;;;;;;;34.60;31.05;99166.00;5034369;28;19925;-69
2022/06/30 09:15:38;;;;;;;;;;;;;;;34.68;31.13;99172.13;5034486;28;20015;-70
2022/06/30 09:18:08;;;;;;;;;;;;;;;34.89;30.55;99166.31;5034745;28;19928;-69
2022/06/30 09:20:38;;;;;;;;;;;;;;;34.90;30.72;99167.97;5034491;28;19960;-69
2022/06/30 09:23:19;;;;;;;;;;;;;;;34.71;29.55;99163.00;5034692;28;19967;-69
2022/06/30 09:25:49;;;;;;;;;;;;;;;34.36;27.59;99167.59;5034688;28;20401;-70
2022/06/30 09:28:37;;;;;;;;;;;;;;;34.07;27.56;99161.97;5034222;28;19924;-70
2022/06/30 09:31:06;;;;;;;;;;;;;;;33.72;27.62;99157.69;5034203;28;20008;-67
2022/06/30 09:33:38;;;;;;;;;;;;;;;33.72;28.01;99156.84;5034547;28;20347;-66
2022/06/30 09:36:18;;;;;;;;;;;;;;;33.82;27.47;99159.34;5034594;28;19921;-67
2022/06/30 09:39:07;;;;;;;;;;;;;;;34.03;28.13;99162.38;5034535;28;20032;-68
2022/06/30 09:41:36;;;;;;;;;;;;;;;34.24;28.44;99153.00;5034082;28;19921;-65
2022/06/30 09:44:05;;;;;;;;;;;;;;;34.31;28.33;99145.25;5034387;28;19921;-68
2022/06/30 09:46:36;;;;;;;;;;;;;;;34.41;27.99;99147.75;5033594;28;20393;-66
2022/06/30 09:49:06;;;;;;;;;;;;;;;34.40;27.51;99144.25;5033957;28;19991;-66
2022/06/30 09:51:42;;;;;;;;;;;;;;;34.38;28.09;99130.34;5034445;28;19975;-67
2022/06/30 09:54:11;;;;;;;;;;;;;;;34.42;27.92;99146.72;5034291;28;19927;-66
2022/06/30 09:56:40;;;;;;;;;;;;;;;34.43;28.63;99137.81;5034382;28;19948;-67
2022/06/30 09:59:09;;;;;;;;;;;;;;;34.50;27.87;99144.94;5033978;28;19928;-66
2022/06/30 10:01:50;;;;;;;;;;;;;;;34.56;27.37;99135.50;5033877;28;19921;-69
2022/06/30 10:04:21;;;;;;;;;;;;;;;34.69;27.81;99133.19;5033934;28;19921;-68
2022/06/30 10:06:49;;;;;;;;;;;;;;;34.74;27.42;99136.16;5033863;28;19921;-68
2022/06/30 10:09:18;;;;;;;;;;;;;;;34.86;27.36;99125.03;5034152;28;19967;-69
2022/06/30 10:11:48;;;;;;;;;;;;;;;35.01;26.99;99133.09;5033647;28;19921;-69
2022/06/30 10:14:17;;;;;;;;;;;;;;;35.03;26.92;99141.78;5033572;28;20008;-65
2022/06/30 10:16:46;;;;;;;;;;;;;;;35.02;26.76;99140.06;5033153;28;20335;-66
2022/06/30 10:19:14;;;;;;;;;;;;;;;34.95;26.99;99139.94;5032599;28;20343;-67
2022/06/30 10:21:45;;;;;;;;;;;;;;;34.96;26.84;99128.31;5033654;28;20398;-67
2022/06/30 10:24:18;;;;;;;;;;;;;;;35.05;26.91;99134.47;5033698;28;19930;-69
2022/06/30 10:29:24;;;;;;;;;;;;;;;35.16;25.87;99126.13;5033645;28;19975;-69
2022/06/30 10:32:00;;;;;;;;;;;;;;;35.20;26.00;99121.31;5033621;28;20409;-69
2022/06/30 10:34:32;;;;;;;;;;;;;;;35.23;25.93;99116.47;5033960;28;19921;-67
2022/06/30 10:37:06;;;;;;;;;;;;;;;35.15;25.81;99121.00;5033509;28;20326;-67
2022/06/30 10:39:39;;;;;;;;;;;;;;;35.09;26.22;99125.16;5033587;28;20011;-68
2022/06/30 10:42:09;;;;;;;;;;;;;;;35.06;25.93;99120.19;5033497;28;19921;-65
2022/06/30 10:44:37;;;;;;;;;;;;;;;35.16;26.22;99120.81;5033425;28;19925;-68
2022/06/30 10:47:07;;;;;;;;;;;;;;;35.20;25.90;99116.84;5033490;28;19921;-65
2022/06/30 10:49:47;;;;;;;;;;;;;;;35.28;26.14;99124.75;5033425;28;19971;-69
2022/06/30 10:52:20;;;;;;;;;;;;;;;35.39;26.05;99116.44;5033410;28;20016;-68
2022/06/30 10:54:49;;;;;;;;;;;;;;;35.46;25.71;99122.72;5033396;28;19925;-70
2022/06/30 10:57:18;;;;;;;;;;;;;;;35.50;25.55;99113.41;5035683;28;19933;-67
2022/06/30 10:59:46;;;;;;;;;;;;;;;35.49;25.42;99117.03;5036930;28;19921;-69
2022/06/30 11:02:27;;;;;;;;;;;;;;;35.50;24.90;99118.69;5036924;28;19921;-67
2022/06/30 11:05:06;;;;;;;;;;;;;;;35.48;25.15;99120.72;5036923;28;19952;-68
2022/06/30 11:07:36;;;;;;;;;;;;;;;35.52;25.03;99122.03;5036897;28;19921;-70
2022/06/30 11:10:06;;;;;;;;;;;;;;;35.57;24.64;99114.38;5032312;28;19922;-67
2022/06/30 11:12:44;;;;;;;;;;;;;;;35.68;24.81;99110.53;5028174;28;19921;-67
2022/06/30 11:15:14;;;;;;;;;;;;;;;35.77;24.68;99103.31;5016753;28;19975;-68
2022/06/30 11:17:43;;;;;;;;;;;;;;;35.79;24.78;99098.66;5033777;28;19929;-68
2022/06/30 11:20:19;;;;;;;;;;;;;;;35.92;24.78;99102.38;5036661;28;19920;-67
2022/06/30 11:22:51;;;;;;;;;;;;;;;36.02;24.99;99096.84;5033270;28;19927;-67
2022/06/30 11:28:05;;;;;;;;;;;;;;;35.95;24.95;99093.22;5034086;28;20341;-68
2022/06/30 11:30:35;;;;;;;;;;;;;;;35.98;25.16;99084.91;5033631;28;19925;-66
2022/06/30 11:33:04;;;;;;;;;;;;;;;36.02;24.84;99092.38;5032845;28;19925;-68
2022/06/30 11:35:32;;;;;;;;;;;;;;;36.04;24.79;99089.56;5034016;28;20437;-70
2022/06/30 11:38:02;;;;;;;;;;;;;;;35.93;25.02;99088.09;5030061;28;19925;-71
2022/06/30 11:40:32;;;;;;;;;;;;;;;35.84;24.96;99090.97;5033326;28;19921;-68
2022/06/30 11:43:00;;;;;;;;;;;;;;;35.87;25.43;99093.28;5031853;28;20366;-69
2022/06/30 11:45:30;;;;;;;;;;;;;;;35.87;25.71;99093.28;5032727;28;19921;-70
2022/06/30 11:48:01;;;;;;;;;;;;;;;35.85;25.75;99087.34;5032285;28;20355;-71
2022/06/30 11:50:29;;;;;;;;;;;;;;;35.84;25.99;99093.63;5034897;28;19975;-71
2022/06/30 11:53:00;;;;;;;;;;;;;;;35.87;25.60;99080.84;5033580;28;19968;-70
2022/06/30 11:55:30;;;;;;;;;;;;;;;36.00;24.64;99088.25;5033712;28;20382;-74
2022/06/30 11:57:59;;;;;;;;;;;;;;;35.86;24.80;99091.63;5035497;28;19921;-68
2022/06/30 12:00:28;;;;;;;;;;;;;;;35.71;25.02;99070.31;5032230;28;19921;-70
2022/06/30 12:02:56;;;;;;;;;;;;;;;35.75;25.31;99070.78;5025646;28;20003;-69
2022/06/30 12:05:27;;;;;;;;;;;;;;;35.95;25.63;99069.31;5032849;28;19921;-68
2022/06/30 12:07:56;;;;;;;;;;;;;;;36.05;25.86;99061.97;5032775;28;19925;-69
2022/06/30 12:10:26;;;;;;;;;;;;;;;36.12;25.60;99062.91;5028634;28;20352;-66
2022/06/30 12:13:00;;;;;;;;;;;;;;;36.18;25.08;99070.16;5030353;28;20278;-68
2022/06/30 12:15:29;;;;;;;;;;;;;;;36.21;25.54;99053.88;5031955;28;19921;-67
2022/06/30 12:17:57;;;;;;;;;;;;;;;36.23;25.10;99062.50;5032545;28;19921;-71
2022/06/30 12:20:28;;;;;;;;;;;;;;;36.28;25.32;99055.59;5022874;28;19959;-66
2022/06/30 12:22:57;;;;;;;;;;;;;;;36.34;25.13;99046.09;5026799;28;19921;-68
2022/06/30 12:25:29;;;;;;;;;;;;;;;36.39;25.21;99038.41;5033962;28;20012;-69
2022/06/30 12:27:59;;;;;;;;;;;;;;;36.49;25.50;99040.81;5035832;28;19921;-67
2022/06/30 12:30:32;;;;;;;;;;;;;;;36.56;25.97;99045.25;5034310;28;19921;-66
2022/06/30 12:33:02;;;;;;;;;;;;;;;36.52;24.79;99033.28;5033642;28;20004;-66
2022/06/30 12:35:32;;;;;;;;;;;;;;;36.43;24.70;99025.53;5033750;28;20371;-67
2022/06/30 12:38:09;;;;;;;;;;;;;;;36.48;24.67;99029.34;5030838;28;19929;-68
2022/06/30 12:40:38;;;;;;;;;;;;;;;36.51;24.78;99036.97;5032164;28;20032;-69
2022/06/30 12:43:16;;;;;;;;;;;;;;;36.41;24.07;99033.72;5032819;28;19921;-67
2022/06/30 12:45:47;;;;;;;;;;;;;;;36.41;24.40;99032.88;5023015;28;20024;-73
2022/06/30 12:48:36;;;;;;;;;;;;;;;36.35;24.04;99023.81;5033499;28;19921;-67
2022/06/30 12:51:05;;;;;;;;;;;;;;;36.41;24.68;99023.09;5031007;28;20027;-70
2022/06/30 12:53:34;;;;;;;;;;;;;;;36.29;24.30;99020.03;5033367;28;19921;-68
2022/06/30 12:56:05;;;;;;;;;;;;;;;36.31;24.54;99006.56;5028442;28;20290;-69
2022/06/30 12:58:44;;;;;;;;;;;;;;;36.40;24.85;99020.63;5028384;28;19925;-70
2022/06/30 13:01:15;;;;;;;;;;;;;;;36.54;24.66;99019.84;5026863;28;19921;-69
2022/06/30 13:03:55;;;;;;;;;;;;;;;36.58;24.41;99013.97;5030196;28;19921;-69
2022/06/30 13:06:24;;;;;;;;;;;;;;;36.62;24.70;99015.25;5034891;28;19952;-69
2022/06/30 13:08:53;;;;;;;;;;;;;;;36.51;24.20;99013.03;5035026;28;19971;-66
2022/06/30 13:11:26;;;;;;;;;;;;;;;36.45;24.37;99012.91;5034840;28;19967;-68
2022/06/30 13:13:55;;;;;;;;;;;;;;;36.38;24.52;99004.81;5029552;28;19927;-68
2022/06/30 13:16:26;;;;;;;;;;;;;;;36.35;24.45;99007.88;5030696;28;19992;-69
2022/06/30 13:18:56;;;;;;;;;;;;;;;36.40;24.77;99007.31;5034017;28;19921;-70
2022/06/30 13:21:24;;;;;;;;;;;;;;;36.45;24.80;99003.09;5029555;28;19921;-67
2022/06/30 13:23:53;;;;;;;;;;;;;;;36.44;24.11;98997.97;5034420;28;19925;-71
2022/06/30 13:26:22;;;;;;;;;;;;;;;36.33;24.25;98994.72;5031785;28;20330;-71